Time;durP1;ratioP1;P1;durP2;ratioP2;P2;SDS_P1;SDS_P2;PMS_P1;PMS_P2;Temp;Humidity;BMP_temperature;BMP_pressure;BME280_temperature;BME280_humidity;BME280_pressure;Samples;Min_cycle;Max_cycle;Signal;HPM_P1;HPM_P2
2021/01/04 14:38:39;;;;;;;1.48;0.60;;;;;;;22.84;30.93;101566.38;4988924;22;98853;-57
2021/01/04 14:41:04;;;;;;;0.90;0.60;;;;;;;22.85;30.83;101562.78;4992761;28;96785;-58
2021/01/04 14:43:30;;;;;;;0.65;0.50;;;;;;;22.87;30.62;101563.59;4957210;28;117600;-58
2021/01/04 14:45:57;;;;;;;0.82;0.60;;;;;;;22.89;30.70;101572.41;4965988;28;99544;-58
2021/01/04 14:48:24;;;;;;;0.88;0.60;;;;;;;22.91;30.65;101570.59;4990225;28;97262;-58
2021/01/04 14:50:50;;;;;;;0.75;0.50;;;;;;;22.92;30.45;101569.66;4958701;28;96853;-58
2021/01/04 14:53:15;;;;;;;1.00;0.70;;;;;;;22.94;30.43;101576.72;4992178;28;97140;-58
2021/01/04 14:55:41;;;;;;;1.25;0.68;;;;;;;22.94;30.70;101566.06;4974816;28;97366;-56
2021/01/04 14:58:06;;;;;;;0.80;0.50;;;;;;;22.96;30.37;101566.03;4956146;28;113183;-58
2021/01/04 15:00:32;;;;;;;1.27;0.60;;;;;;;22.97;30.20;101579.25;4989534;28;117025;-57
2021/01/04 15:02:58;;;;;;;1.60;0.93;;;;;;;22.99;30.30;101576.56;4957719;28;117833;-47
2021/01/04 15:05:24;;;;;;;9.95;0.75;;;;;;;23.01;30.33;101574.72;4970911;28;99730;-58
2021/01/04 15:07:49;;;;;;;2.25;0.65;;;;;;;23.02;30.72;101564.97;4993957;28;126487;-57
2021/01/04 15:10:15;;;;;;;3.28;0.70;;;;;;;23.04;30.46;101576.44;4994586;28;117018;-55
2021/01/04 15:12:41;;;;;;;2.40;0.60;;;;;;;23.04;30.31;101569.34;4996808;28;96868;-54
2021/01/04 15:15:08;;;;;;;2.13;0.65;;;;;;;23.07;30.34;101571.09;4976676;28;99636;-55
2021/01/04 15:17:34;;;;;;;0.98;0.50;;;;;;;23.08;30.64;101571.00;4993030;28;127548;-56
2021/01/04 15:19:59;;;;;;;196.82;39.83;;;;;;;23.09;30.27;101572.78;4976232;28;118045;-57
2021/01/04 15:22:25;;;;;;;184.82;36.65;;;;;;;23.11;30.31;101576.25;4978501;28;96776;-53
2021/01/04 15:24:50;;;;;;;135.95;30.55;;;;;;;23.15;30.46;101585.03;4993602;28;126899;-51
2021/01/04 15:27:17;;;;;;;132.32;30.13;;;;;;;23.19;30.64;101589.34;4990773;28;125563;-53
2021/01/04 15:29:43;;;;;;;112.55;25.23;;;;;;;23.22;30.60;101581.28;4994917;28;97268;-49
2021/01/04 15:32:08;;;;;;;95.53;23.17;;;;;;;23.26;30.48;101582.06;4994197;28;97388;-52
2021/01/04 15:34:40;;;;;;;89.25;22.67;;;;;;;23.28;30.62;101588.19;4975766;28;107168;-50
2021/01/04 15:37:06;;;;;;;91.32;20.83;;;;;;;23.30;30.56;101581.94;4985325;28;97201;-49
2021/01/04 15:39:51;;;;;;;79.35;20.35;;;;;;;23.30;30.32;101591.72;4979110;28;117076;-47
2021/01/04 15:42:16;;;;;;;80.75;19.55;;;;;;;23.33;30.48;101592.50;4948295;28;97312;-47
2021/01/04 15:44:42;;;;;;;65.22;18.90;;;;;;;23.34;30.22;101582.72;4990538;28;98470;-52
2021/01/04 15:47:07;;;;;;;63.20;18.33;;;;;;;23.35;30.47;101585.34;4995382;28;96717;-48
2021/01/04 15:49:33;;;;;;;60.97;17.63;;;;;;;23.35;30.53;101587.09;4994629;28;97040;-50
2021/01/04 15:52:01;;;;;;;58.40;16.25;;;;;;;23.35;30.54;101579.13;4966553;28;96888;-47
2021/01/04 15:54:27;;;;;;;56.15;16.13;;;;;;;23.37;30.66;101587.97;4989654;28;97557;-48
2021/01/04 15:56:55;;;;;;;57.35;15.15;;;;;;;23.36;30.36;101584.41;4992727;28;126618;-49
2021/01/04 15:59:20;;;;;;;52.60;15.50;;;;;;;23.40;30.54;101584.31;4960107;28;97193;-48
2021/01/04 16:01:46;;;;;;;48.97;14.18;;;;;;;23.40;30.49;101584.31;4974335;28;116840;-50
2021/01/04 16:04:13;;;;;;;47.50;14.00;;;;;;;23.40;30.56;101585.19;4975797;28;97578;-51
2021/01/04 16:06:40;;;;;;;48.92;12.95;;;;;;;23.39;30.49;101586.13;4989940;28;97188;-51
2021/01/04 16:09:05;;;;;;;39.42;12.65;;;;;;;23.40;30.62;101584.31;4993727;28;96826;-52
2021/01/04 16:11:32;;;;;;;42.38;12.40;;;;;;;23.39;30.66;101586.13;4965175;28;97340;-52
2021/01/04 16:13:58;;;;;;;36.85;11.23;;;;;;;23.39;30.87;101583.47;4978209;28;97520;-54
2021/01/04 16:16:24;;;;;;;37.10;10.68;;;;;;;;;;4955330;28;97315;-53
2021/01/04 16:18:49;;;;;;;32.97;10.18;;;;;;;23.36;30.35;101581.75;4984282;28;96957;-57
2021/01/04 16:21:16;;;;;;;30.02;8.73;;;;;;;23.35;30.15;101585.34;4983183;28;96750;-57
2021/01/04 16:23:41;;;;;;;33.92;8.95;;;;;;;23.34;30.49;101583.59;4967864;28;121154;-62
2021/01/04 16:26:07;;;;;;;34.65;8.32;;;;;;;23.33;30.40;101591.59;4959020;28;109229;-61
2021/01/04 16:28:32;;;;;;;23.17;8.07;;;;;;;23.31;30.30;101589.00;4982101;28;117121;-62
2021/01/04 16:30:58;;;;;;;26.92;7.40;;;;;;;23.31;30.02;101582.81;4976789;28;97015;-62
2021/01/04 16:33:25;;;;;;;26.05;6.90;;;;;;;23.29;30.04;101593.50;4975821;28;97548;-62
2021/01/04 16:35:50;;;;;;;23.60;6.80;;;;;;;23.29;30.05;101592.63;4976118;28;97294;-62
2021/01/04 16:38:16;;;;;;;21.55;6.30;;;;;;;23.28;30.14;101588.19;4994823;28;96709;-62
2021/01/04 16:40:41;;;;;;;21.92;6.45;;;;;;;23.27;29.68;101592.66;4994407;28;97038;-62
2021/01/04 16:43:07;;;;;;;21.10;6.18;;;;;;;23.26;29.73;101585.63;4974656;28;127369;-62
2021/01/04 16:45:32;;;;;;;18.15;5.85;;;;;;;23.27;29.91;101594.47;4993145;28;125854;-62
2021/01/04 16:47:58;;;;;;;17.65;5.72;;;;;;;23.26;29.75;101593.59;4994727;28;96592;-62
2021/01/04 16:50:23;;;;;;;17.13;5.28;;;;;;;23.25;29.89;101585.66;4975968;28;116539;-62
2021/01/04 16:52:49;;;;;;;16.10;5.15;;;;;;;23.23;30.13;101583.03;4974122;28;126763;-62
2021/01/04 16:55:18;;;;;;;12.77;4.90;;;;;;;23.23;30.12;101585.69;4991944;28;97261;-62
2021/01/04 16:57:43;;;;;;;11.60;4.75;;;;;;;23.23;30.12;101590.16;4952426;28;97307;-61
2021/01/04 17:00:10;;;;;;;17.63;4.97;;;;;;;23.23;29.99;101599.00;4971764;28;96834;-57
2021/01/04 17:02:36;;;;;;;17.38;4.63;;;;;;;23.22;29.64;101583.94;4954476;28;98869;-62
2021/01/04 17:05:01;;;;;;;17.50;4.63;;;;;;;23.22;30.07;101586.59;4951172;28;126802;-61
2021/01/04 17:07:27;;;;;;;12.63;3.95;;;;;;;23.22;29.73;101597.25;4973720;28;116931;-62
2021/01/04 17:09:52;;;;;;;15.50;4.50;;;;;;;23.22;30.05;101588.41;4972638;28;117391;-61
2021/01/04 17:12:17;;;;;;;11.15;4.40;;;;;;;23.22;29.87;101588.41;4972443;28;97436;-60
2021/01/04 17:14:43;;;;;;;14.48;3.78;;;;;;;23.23;29.63;101587.50;4988672;28;126343;-61
2021/01/04 17:17:08;;;;;;;10.68;3.88;;;;;;;23.22;29.92;101586.59;4990505;28;96786;-62
2021/01/04 17:19:34;;;;;;;10.65;3.92;;;;;;;23.23;29.90;101583.03;4989278;28;116599;-61
2021/01/04 17:22:00;;;;;;;10.63;3.72;;;;;;;23.23;29.46;101584.84;4970369;28;97994;-61
2021/01/04 17:24:26;;;;;;;10.32;3.83;;;;;;;23.23;29.95;101591.03;4970022;28;97205;-61
2021/01/04 17:26:52;;;;;;;9.43;3.45;;;;;;;23.22;29.80;101585.72;4959177;28;96793;-60
2021/01/04 17:29:17;;;;;;;10.60;3.42;;;;;;;23.23;29.82;101590.16;4976395;28;97148;-59
2021/01/04 17:31:43;;;;;;;8.50;2.95;;;;;;;23.23;29.51;101587.50;4965292;28;99763;-58
2021/01/04 17:34:09;;;;;;;10.63;3.25;;;;;;;23.22;29.45;101586.59;4987830;28;119751;-57
2021/01/04 17:36:34;;;;;;;7.88;3.13;;;;;;;23.23;29.89;101587.50;4973196;28;96800;-57
2021/01/04 17:39:00;;;;;;;10.40;3.00;;;;;;;23.23;29.82;101592.81;4991516;28;96874;-57
2021/01/04 17:41:29;;;;;;;9.40;2.75;;;;;;;23.23;29.83;101593.69;4974634;28;97558;-56
2021/01/04 17:43:56;;;;;;;7.80;2.85;;;;;;;23.23;29.85;101588.34;4971868;28;97117;-56
2021/01/04 17:46:23;;;;;;;7.65;2.78;;;;;;;23.24;29.47;101595.41;4989887;28;96906;-56
2021/01/04 17:48:49;;;;;;;7.22;3.05;;;;;;;23.23;29.87;101588.34;4974369;28;96904;-57
2021/01/04 17:51:14;;;;;;;6.40;2.40;;;;;;;23.24;29.79;101590.09;4990515;28;97482;-56
2021/01/04 17:53:41;;;;;;;5.95;2.22;;;;;;;23.24;29.67;101590.09;4971832;28;125487;-57
2021/01/04 17:56:06;;;;;;;7.18;2.33;;;;;;;23.24;29.68;101591.88;4973676;28;117033;-56
2021/01/04 17:58:32;;;;;;;7.60;2.28;;;;;;;23.24;29.44;101589.22;4972519;28;96616;-56
2021/01/04 18:00:58;;;;;;;6.70;2.03;;;;;;;23.24;29.45;101589.22;4970029;28;108360;-56
2021/01/04 18:03:23;;;;;;;7.65;2.72;;;;;;;23.24;29.66;101589.22;4966361;28;99441;-58
2021/01/04 18:05:48;;;;;;;4.32;1.92;;;;;;;23.24;29.69;101587.41;4970270;28;97285;-57
2021/01/04 18:08:14;;;;;;;5.30;2.20;;;;;;;23.23;29.82;101584.84;4990113;28;116706;-56
2021/01/04 18:10:40;;;;;;;6.50;1.88;;;;;;;23.24;29.53;101590.09;4985853;28;115560;-57
2021/01/04 18:13:05;;;;;;;4.57;2.20;;;;;;;23.24;29.60;101589.22;4973751;28;97264;-56
2021/01/04 18:15:31;;;;;;;5.50;2.10;;;;;;;23.25;29.77;101590.97;4955573;28;97233;-56
2021/01/04 18:17:56;;;;;;;4.38;2.00;;;;;;;23.24;29.45;101584.75;4986442;28;97047;-57
2021/01/04 18:20:22;;;;;;;3.92;1.88;;;;;;;23.24;29.61;101589.22;4982008;28;98141;-56
2021/01/04 18:22:52;;;;;;;4.65;1.60;;;;;;;23.25;29.58;101590.97;4974190;28;97078;-53
2021/01/04 18:25:18;;;;;;;4.28;1.90;;;;;;;23.25;29.72;101594.50;4971392;28;96673;-53
2021/01/04 18:27:43;;;;;;;5.68;1.95;;;;;;;23.25;29.34;101593.63;4991825;28;97120;-53
2021/01/04 18:30:09;;;;;;;3.30;1.58;;;;;;;23.25;29.72;101594.50;4991372;28;97500;-53
2021/01/04 18:32:35;;;;;;;3.03;1.48;;;;;;;23.25;29.61;101599.81;4955134;28;98424;-52
2021/01/04 18:35:00;;;;;;;2.97;1.80;;;;;;;23.25;29.44;101601.63;4989549;28;96800;-52
2021/01/04 18:37:26;;;;;;;3.58;1.30;;;;;;;23.25;29.75;101602.50;4993808;28;101393;-53
2021/01/04 18:39:51;;;;;;;3.97;1.60;;;;;;;23.24;29.54;101603.38;4993560;28;127302;-53
2021/01/04 18:42:16;;;;;;;5.70;1.50;;;;;;;23.25;29.60;101604.28;4975639;28;100901;-53
2021/01/04 18:44:42;;;;;;;4.75;1.55;;;;;;;23.25;29.53;101604.28;4976870;28;96904;-53
2021/01/04 18:47:07;;;;;;;4.30;1.55;;;;;;;23.24;29.51;101602.53;4961607;28;96929;-53
2021/01/04 18:49:33;;;;;;;6.38;1.73;;;;;;;23.23;29.37;101607.00;4964026;28;120082;-61
2021/01/04 18:52:00;;;;;;;4.50;1.42;;;;;;;23.24;29.44;101600.72;4977730;28;97191;-52
2021/01/04 18:54:25;;;;;;;3.05;1.67;;;;;;;23.24;29.28;101607.84;4977653;28;97318;-52
2021/01/04 18:56:51;;;;;;;3.38;1.50;;;;;;;23.25;29.39;101596.31;4960744;28;116821;-53
2021/01/04 18:59:17;;;;;;;4.10;1.35;;;;;;;23.25;29.46;101605.16;4995467;28;97539;-53
2021/01/04 19:01:42;;;;;;;3.97;1.40;;;;;;;23.26;29.34;101606.91;4976507;28;97210;-52
2021/01/04 19:04:08;;;;;;;5.78;1.33;;;;;;;23.26;29.27;101601.59;4992804;28;111766;-52
2021/01/04 19:06:36;;;;;;;2.40;1.20;;;;;;;23.27;29.19;101605.09;4994416;28;96678;-52
2021/01/04 19:09:03;;;;;;;3.08;1.20;;;;;;;23.27;29.44;101602.44;4993890;28;97591;-53
2021/01/04 19:11:31;;;;;;;3.28;1.23;;;;;;;23.28;29.23;101601.50;4974375;28;113951;-52
2021/01/04 19:13:56;;;;;;;4.25;1.27;;;;;;;23.29;29.10;101597.94;4976802;28;97203;-52
2021/01/04 19:16:22;;;;;;;2.58;1.00;;;;;;;23.29;29.14;101600.59;4961474;28;96764;-53
2021/01/04 19:18:47;;;;;;;3.17;1.20;;;;;;;23.29;29.50;101604.13;4993487;28;115185;-52
2021/01/04 19:21:15;;;;;;;2.22;1.10;;;;;;;23.30;29.39;101595.25;4995270;28;97452;-52
2021/01/04 19:23:44;;;;;;;2.75;1.08;;;;;;;23.30;29.00;101599.72;4959582;28;96874;-52
2021/01/04 19:26:10;;;;;;;3.10;1.00;;;;;;;23.31;29.42;101596.97;4992575;28;96711;-52
2021/01/04 19:28:36;;;;;;;3.90;1.42;;;;;;;23.30;29.19;101595.25;4980230;28;98436;-52
2021/01/04 19:31:01;;;;;;;2.78;1.10;;;;;;;23.32;29.35;101597.88;4975428;28;126615;-52
2021/01/04 19:33:26;;;;;;;3.50;1.08;;;;;;;23.30;28.95;101600.56;4994050;28;115563;-52
2021/01/04 19:35:52;;;;;;;2.20;1.08;;;;;;;23.31;29.17;101594.31;4976454;28;99423;-52
2021/01/04 19:38:17;;;;;;;3.30;0.90;;;;;;;23.30;29.36;101592.59;4972040;28;126820;-50
2021/01/04 19:40:43;;;;;;;1.98;0.90;;;;;;;23.30;29.52;101592.59;4985487;28;96683;-52
2021/01/04 19:43:08;;;;;;;3.40;1.42;;;;;;;23.30;29.15;101589.06;4985156;28;101482;-52
2021/01/04 19:45:34;;;;;;;2.35;0.93;;;;;;;23.29;29.32;101595.28;4994062;28;116618;-52
2021/01/04 19:47:59;;;;;;;1.48;0.75;;;;;;;23.27;29.37;101591.81;4953555;28;119424;-52
2021/01/04 19:50:25;;;;;;;1.95;0.90;;;;;;;23.26;29.34;101596.25;4988308;28;97578;-52
2021/01/04 19:52:51;;;;;;;1.55;0.80;;;;;;;23.23;29.33;101592.81;4993968;28;117533;-52
2021/01/04 19:55:16;;;;;;;1.88;0.70;;;;;;;23.21;29.48;101591.97;4993395;28;116761;-51
2021/01/04 19:57:42;;;;;;;1.92;1.05;;;;;;;23.19;29.47;101598.22;4976934;28;97678;-52
2021/01/04 20:00:08;;;;;;;1.80;0.82;;;;;;;23.17;29.41;101594.72;4993603;28;126450;-52
2021/01/04 20:02:35;;;;;;;1.85;1.00;;;;;;;23.15;29.29;101593.88;4942979;28;96939;-52
2021/01/04 20:05:00;;;;;;;1.50;0.70;;;;;;;23.14;29.39;101593.94;4988962;28;96851;-52
2021/01/04 20:07:26;;;;;;;1.85;0.80;;;;;;;23.13;29.23;101597.50;4993213;28;128994;-52
2021/01/04 20:09:52;;;;;;;2.10;0.70;;;;;;;23.10;29.10;101606.47;4993387;28;97190;-52
2021/01/04 20:12:17;;;;;;;1.30;0.60;;;;;;;23.08;29.05;101602.94;4988557;28;96887;-53
2021/01/04 20:14:42;;;;;;;1.90;0.90;;;;;;;23.08;29.48;101602.09;4989869;28;118253;-52
2021/01/04 20:17:08;;;;;;;3.08;0.77;;;;;;;23.06;29.01;101606.56;4994093;28;98392;-52
2021/01/04 20:19:33;;;;;;;0.95;0.57;;;;;;;23.04;29.24;101603.06;4994693;28;100487;-53
2021/01/04 20:21:59;;;;;;;2.53;0.80;;;;;;;23.02;29.36;101605.75;4976691;28;96736;-52
2021/01/04 20:24:24;;;;;;;1.42;0.77;;;;;;;23.01;29.63;101601.34;4975469;28;100005;-53
2021/01/04 20:26:52;;;;;;;1.58;0.70;;;;;;;23.00;29.33;101604.94;4959575;28;117635;-52
2021/01/04 20:29:20;;;;;;;1.73;1.00;;;;;;;22.99;29.32;101611.16;4968105;28;97304;-53
2021/01/04 20:31:47;;;;;;;1.00;0.60;;;;;;;22.98;29.51;101607.63;4955872;28;96726;-53
2021/01/04 20:34:13;;;;;;;1.70;0.70;;;;;;;22.98;29.50;101606.75;4968709;28;110619;-53
2021/01/04 20:36:39;;;;;;;2.35;0.80;;;;;;;22.97;29.22;101610.31;4974600;28;97571;-52
2021/01/04 20:39:05;;;;;;;6.05;1.20;;;;;;;22.96;29.28;101606.81;5007959;22;126572;-56
2021/01/04 20:41:30;;;;;;;2.50;0.80;;;;;;;22.95;29.55;101613.03;4985627;28;96821;-56
2021/01/04 20:43:56;;;;;;;3.10;0.80;;;;;;;22.95;29.27;101610.34;4963893;28;116710;-56
2021/01/04 20:46:21;;;;;;;3.47;0.80;;;;;;;22.96;29.32;101603.28;4985988;28;126542;-56
2021/01/04 20:48:47;;;;;;;1.42;0.90;;;;;;;22.96;29.50;101611.25;4984933;28;97144;-49
2021/01/04 20:51:13;;;;;;;3.40;0.68;;;;;;;22.96;29.35;101608.59;4990300;28;97344;-56
2021/01/04 20:53:38;;;;;;;2.50;0.88;;;;;;;22.99;29.17;101611.16;4984305;28;114295;-58
2021/01/04 20:56:04;;;;;;;2.22;0.65;;;;;;;23.02;29.52;101611.06;4971552;28;97416;-59
2021/01/04 20:58:29;;;;;;;1.05;0.82;;;;;;;23.05;29.17;101612.81;4956935;28;126659;-59
2021/01/04 21:00:56;;;;;;;1.40;1.25;;;;;;;23.08;29.16;101612.72;4961025;28;97203;-59
2021/01/04 21:03:21;;;;;;;1.00;0.70;;;;;;;23.08;29.38;101610.94;4952039;28;106613;-59
2021/01/04 21:05:47;;;;;;;2.17;0.73;;;;;;;23.10;29.16;101602.91;4971105;28;127388;-61
2021/01/04 21:08:12;;;;;;;1.90;0.80;;;;;;;23.11;29.18;101600.22;4981392;28;97284;-62
2021/01/04 21:10:38;;;;;;;1.17;0.77;;;;;;;23.13;28.96;101597.50;4974761;28;117265;-61
2021/01/04 21:13:03;;;;;;;2.50;1.42;;;;;;;23.14;28.85;101600.13;4984229;28;110414;-61
2021/01/04 21:15:29;;;;;;;1.40;0.75;;;;;;;23.14;28.97;101602.78;4985042;28;96841;-61
2021/01/04 21:17:54;;;;;;;1.60;0.70;;;;;;;23.15;29.01;101601.84;4981499;28;127334;-62
2021/01/04 21:20:20;;;;;;;0.80;0.50;;;;;;;23.16;29.24;101603.63;4986329;28;96615;-62
2021/01/04 21:22:45;;;;;;;1.70;0.90;;;;;;;23.16;28.87;101597.44;4980703;28;105300;-61
2021/01/04 21:25:11;;;;;;;1.48;0.70;;;;;;;23.16;29.19;101592.97;4983277;28;127232;-61
2021/01/04 21:27:37;;;;;;;2.72;0.70;;;;;;;23.17;28.82;101596.50;4981619;28;97328;-62
2021/01/04 21:30:04;;;;;;;2.45;0.80;;;;;;;23.17;28.90;101599.16;4963229;28;96823;-61
2021/01/04 21:32:29;;;;;;;1.10;0.73;;;;;;;23.16;29.10;101595.63;4985174;28;96946;-61
2021/01/04 21:34:55;;;;;;;1.08;0.65;;;;;;;23.16;28.72;101587.66;4973358;28;128796;-62
2021/01/04 21:37:20;;;;;;;1.00;0.60;;;;;;;23.17;28.86;101589.41;4975315;28;111524;-61
2021/01/04 21:39:46;;;;;;;1.55;0.85;;;;;;;23.17;28.92;101594.72;4962744;28;117201;-58
2021/01/04 21:42:12;;;;;;;1.55;0.55;;;;;;;23.17;29.12;101585.84;4976223;28;96722;-59
2021/01/04 21:44:38;;;;;;;1.13;0.60;;;;;;;23.18;28.79;101596.47;4983626;28;97608;-58
2021/01/04 21:47:04;;;;;;;2.53;0.70;;;;;;;23.19;28.73;101603.53;4958201;28;97564;-58
2021/01/04 21:49:29;;;;;;;3.70;0.90;;;;;;;23.21;28.89;101590.19;4951159;28;96828;-55
2021/01/04 21:51:55;;;;;;;2.03;0.93;;;;;;;23.22;28.85;101599.91;4976754;28;113618;-59
2021/01/04 21:54:22;;;;;;;1.63;0.70;;;;;;;23.25;28.86;101605.16;4965942;28;97561;-54
2021/01/04 21:56:53;;;;;;;2.33;1.02;;;;;;;23.26;29.04;101600.69;4976863;28;97290;-60
2021/01/04 21:59:19;;;;;;;1.52;1.42;;;;;;;23.26;29.00;101596.25;4978234;28;96768;-60
2021/01/04 22:02:11;;;;;;;1.23;1.00;;;;;;;23.22;29.25;101596.38;4959014;28;96851;-60
2021/01/04 22:04:39;;;;;;;3.00;0.82;;;;;;;23.22;28.76;101591.91;4967059;28;97380;-60
2021/01/04 22:07:05;;;;;;;1.30;0.70;;;;;;;23.19;29.12;101595.56;4955561;28;100214;-60
2021/01/04 22:09:31;;;;;;;0.70;0.50;;;;;;;23.16;28.95;101592.09;4976380;28;116965;-61
2021/01/04 22:11:57;;;;;;;1.60;0.50;;;;;;;23.13;28.94;101598.38;4955094;28;118022;-61
2021/01/04 22:14:22;;;;;;;1.02;0.50;;;;;;;23.12;29.04;101593.09;4973572;28;97921;-60
2021/01/04 22:16:52;;;;;;;3.83;1.10;;;;;;;23.09;29.14;101603.84;4963674;28;97057;-61
2021/01/04 22:19:17;;;;;;;2.58;1.00;;;;;;;23.07;28.79;101593.22;4959124;28;98775;-60
2021/01/04 22:21:43;;;;;;;3.45;0.85;;;;;;;23.06;28.86;101596.78;4964414;28;116765;-61
2021/01/04 22:24:09;;;;;;;2.42;0.90;;;;;;;23.04;28.74;101589.75;4978461;28;97610;-63
2021/01/04 22:26:34;;;;;;;2.78;0.88;;;;;;;23.04;28.86;101589.75;4973751;28;97643;-61
2021/01/04 22:29:00;;;;;;;2.92;0.85;;;;;;;23.03;28.93;101594.22;4971428;28;116837;-61
2021/01/04 22:31:25;;;;;;;2.42;0.68;;;;;;;23.02;29.07;101595.13;4979269;28;115473;-61
2021/01/04 22:33:52;;;;;;;3.92;0.70;;;;;;;23.02;28.75;101586.28;4984131;28;97334;-62
2021/01/04 22:36:19;;;;;;;3.38;1.00;;;;;;;23.01;28.75;101590.69;4973966;28;126481;-62
2021/01/04 22:38:44;;;;;;;2.63;0.75;;;;;;;23.00;28.99;101581.84;4952107;28;96937;-62
2021/01/04 22:41:10;;;;;;;1.63;0.68;;;;;;;23.01;28.76;101585.38;4969323;28;96761;-61
2021/01/04 22:43:36;;;;;;;1.10;0.60;;;;;;;23.01;28.69;101582.72;4974289;28;125411;-62
2021/01/04 22:46:04;;;;;;;2.50;0.60;;;;;;;23.01;28.93;101585.38;4968096;28;97655;-61
2021/01/04 22:48:33;;;;;;;1.48;0.85;;;;;;;23.00;28.55;101589.81;4971245;28;96744;-61
2021/01/04 22:50:58;;;;;;;1.98;0.70;;;;;;;23.00;28.66;101586.31;4979615;28;117132;-62
2021/01/04 22:53:23;;;;;;;2.28;0.77;;;;;;;23.00;28.52;101586.31;4988885;28;127005;-61
2021/01/04 22:55:51;;;;;;;2.97;0.70;;;;;;;23.01;28.71;101585.38;4991466;28;97188;-61
2021/01/04 22:58:16;;;;;;;1.90;0.70;;;;;;;23.00;28.77;101587.16;4983117;28;96731;-61
2021/01/04 23:00:42;;;;;;;3.08;0.70;;;;;;;23.00;28.66;101580.97;4983210;28;116735;-61
2021/01/04 23:03:08;;;;;;;2.03;1.40;;;;;;;23.00;28.83;101581.84;4983519;28;127189;-60
2021/01/04 23:05:33;;;;;;;2.70;0.63;;;;;;;23.00;28.79;101583.66;4984832;28;97259;-60
2021/01/04 23:07:58;;;;;;;1.77;0.70;;;;;;;22.99;28.84;101581.88;4990180;28;116966;-60
2021/01/04 23:10:24;;;;;;;0.98;0.77;;;;;;;23.00;28.96;101586.31;4982344;28;115575;-60
2021/01/04 23:12:53;;;;;;;0.70;0.50;;;;;;;22.98;28.97;101575.69;4984479;28;127433;-60
2021/01/04 23:15:21;;;;;;;1.70;0.68;;;;;;;22.98;28.88;101582.81;4989583;28;97258;-60
2021/01/04 23:17:46;;;;;;;1.17;0.52;;;;;;;22.98;28.84;101566.84;4986364;28;97142;-60
2021/01/04 23:20:13;;;;;;;2.05;0.70;;;;;;;22.96;28.59;101577.53;4988630;28;109139;-60
2021/01/04 23:22:38;;;;;;;1.40;0.50;;;;;;;22.96;28.51;101564.25;4968923;28;97595;-60
2021/01/04 23:25:11;;;;;;;1.23;0.60;;;;;;;22.94;28.81;101568.72;4985423;28;104510;-60
2021/01/04 23:27:37;;;;;;;1.00;0.70;;;;;;;22.94;28.83;101567.84;4985542;28;97414;-60
2021/01/04 23:30:17;;;;;;;1.70;0.60;;;;;;;22.94;28.82;101566.06;4985652;28;117672;-60
2021/01/04 23:32:43;;;;;;;1.20;0.55;;;;;;;22.93;28.51;101574.94;4981899;28;99310;-60
2021/01/04 23:35:08;;;;;;;1.20;0.55;;;;;;;22.93;28.64;101576.75;4985866;28;128038;-60
2021/01/04 23:37:34;;;;;;;1.77;1.67;;;;;;;22.91;28.86;101568.81;4983671;28;117034;-60
2021/01/04 23:39:59;;;;;;;3.20;1.05;;;;;;;22.91;28.77;101575.91;4980853;28;116703;-60
2021/01/04 23:42:25;;;;;;;0.80;0.50;;;;;;;22.90;28.70;101574.16;4978633;28;97939;-60
2021/01/04 23:44:51;;;;;;;1.08;0.98;;;;;;;22.89;28.72;101567.97;4982325;28;126435;-60
2021/01/04 23:47:21;;;;;;;1.40;0.50;;;;;;;22.87;28.50;101561.84;4966615;28;116038;-60
2021/01/04 23:49:46;;;;;;;1.13;0.75;;;;;;;22.87;28.49;101569.81;4968968;28;96807;-60
2021/01/04 23:52:12;;;;;;;1.35;0.70;;;;;;;22.87;28.99;101567.16;4977372;28;127124;-61
2021/01/04 23:54:37;;;;;;;1.55;0.45;;;;;;;22.86;28.92;101568.06;4985451;28;124175;-60
2021/01/04 23:57:03;;;;;;;1.20;0.40;;;;;;;22.86;28.59;101567.19;4989571;28;97165;-60
2021/01/04 23:59:28;;;;;;;0.73;0.55;;;;;;;22.85;28.48;101563.63;4975971;28;115573;-60
